sensor_id;sensor_type;location;lat;lon;timestamp;pressure;altitude;pressure_sealevel;temperature;humidity
47726;BME280;33483;48.294;16.388;2023-11-21T00:00:02;99111.00;;;5.83;100.00
47726;BME280;33483;48.294;16.388;2023-11-21T00:02:58;99110.00;;;5.80;100.00
47726;BME280;33483;48.294;16.388;2023-11-21T00:05:25;99114.00;;;5.79;100.00
47726;BME280;33483;48.294;16.388;2023-11-21T00:07:53;99112.25;;;5.76;100.00
47726;BME280;33483;48.294;16.388;2023-11-21T00:10:20;99117.00;;;5.75;100.00
47726;BME280;33483;48.294;16.388;2023-11-21T00:12:47;99113.28;;;5.73;100.00
47726;BME280;33483;48.294;16.388;2023-11-21T00:15:15;99106.78;;;5.70;100.00
47726;BME280;33483;48.294;16.388;2023-11-21T00:17:42;99114.56;;;5.66;100.00
47726;BME280;33483;48.294;16.388;2023-11-21T00:20:09;99107.28;;;5.69;100.00
47726;BME280;33483;48.294;16.388;2023-11-21T00:22:40;99109.78;;;5.67;100.00
47726;BME280;33483;48.294;16.388;2023-11-21T00:25:08;99105.06;;;5.62;100.00
47726;BME280;33483;48.294;16.388;2023-11-21T00:27:36;99109.56;;;5.59;100.00
47726;BME280;33483;48.294;16.388;2023-11-21T00:30:03;99114.81;;;5.63;100.00
47726;BME280;33483;48.294;16.388;2023-11-21T00:32:37;99101.03;;;5.68;100.00
47726;BME280;33483;48.294;16.388;2023-11-21T00:35:05;99108.03;;;5.69;100.00
47726;BME280;33483;48.294;16.388;2023-11-21T00:37:33;99104.00;;;5.76;100.00
47726;BME280;33483;48.294;16.388;2023-11-21T00:40:00;99093.78;;;5.71;100.00
47726;BME280;33483;48.294;16.388;2023-11-21T00:42:33;99093.78;;;5.65;100.00
47726;BME280;33483;48.294;16.388;2023-11-21T00:45:06;99096.81;;;5.62;100.00
47726;BME280;33483;48.294;16.388;2023-11-21T00:47:33;99097.56;;;5.57;100.00
47726;BME280;33483;48.294;16.388;2023-11-21T00:50:00;99091.06;;;5.54;100.00
47726;BME280;33483;48.294;16.388;2023-11-21T00:52:28;99088.63;;;5.45;100.00
47726;BME280;33483;48.294;16.388;2023-11-21T00:54:55;99092.59;;;5.44;100.00
47726;BME280;33483;48.294;16.388;2023-11-21T00:57:22;99093.34;;;5.45;100.00
47726;BME280;33483;48.294;16.388;2023-11-21T00:59:49;99093.34;;;5.50;100.00
47726;BME280;33483;48.294;16.388;2023-11-21T01:02:16;99094.56;;;5.55;100.00
47726;BME280;33483;48.294;16.388;2023-11-21T01:04:43;99096.31;;;5.58;100.00
47726;BME280;33483;48.294;16.388;2023-11-21T01:07:15;99093.78;;;5.71;100.00
47726;BME280;33483;48.294;16.388;2023-11-21T01:09:42;99091.28;;;5.73;100.00
47726;BME280;33483;48.294;16.388;2023-11-21T01:12:11;99093.25;;;5.78;100.00
47726;BME280;33483;48.294;16.388;2023-11-21T01:14:39;99090.50;;;5.89;100.00
47726;BME280;33483;48.294;16.388;2023-11-21T01:17:06;99091.09;;;6.17;100.00
47726;BME280;33483;48.294;16.388;2023-11-21T01:19:34;99089.84;;;6.18;100.00
47726;BME280;33483;48.294;16.388;2023-11-21T01:22:01;99082.84;;;6.17;100.00
47726;BME280;33483;48.294;16.388;2023-11-21T01:24:28;99074.91;;;6.08;100.00
47726;BME280;33483;48.294;16.388;2023-11-21T01:26:56;99077.66;;;6.08;100.00
47726;BME280;33483;48.294;16.388;2023-11-21T01:29:23;99080.91;;;6.07;100.00
47726;BME280;33483;48.294;16.388;2023-11-21T01:31:50;99077.16;;;6.04;100.00
47726;BME280;33483;48.294;16.388;2023-11-21T01:34:18;99067.72;;;6.00;100.00
47726;BME280;33483;48.294;16.388;2023-11-21T01:36:48;99063.94;;;6.03;100.00
47726;BME280;33483;48.294;16.388;2023-11-21T01:39:15;99073.16;;;6.05;100.00
47726;BME280;33483;48.294;16.388;2023-11-21T01:41:43;99066.41;;;6.06;100.00
47726;BME280;33483;48.294;16.388;2023-11-21T01:44:13;99068.41;;;6.06;100.00
47726;BME280;33483;48.294;16.388;2023-11-21T01:46:40;99071.16;;;6.06;100.00
47726;BME280;33483;48.294;16.388;2023-11-21T01:49:09;99074.91;;;6.08;100.00
47726;BME280;33483;48.294;16.388;2023-11-21T01:51:41;99068.63;;;6.13;100.00
47726;BME280;33483;48.294;16.388;2023-11-21T01:54:08;99073.34;;;6.18;100.00
47726;BME280;33483;48.294;16.388;2023-11-21T01:56:45;99077.03;;;6.26;100.00
47726;BME280;33483;48.294;16.388;2023-11-21T01:59:17;99073.44;;;6.42;100.00
47726;BME280;33483;48.294;16.388;2023-11-21T02:01:47;99081.41;;;6.51;100.00
47726;BME280;33483;48.294;16.388;2023-11-21T02:04:18;99073.38;;;6.53;100.00
47726;BME280;33483;48.294;16.388;2023-11-21T02:06:46;99075.09;;;6.56;100.00
47726;BME280;33483;48.294;16.388;2023-11-21T02:09:13;99071.31;;;6.59;100.00
47726;BME280;33483;48.294;16.388;2023-11-21T02:11:42;99068.53;;;6.65;100.00
47726;BME280;33483;48.294;16.388;2023-11-21T02:14:09;99062.50;;;6.66;100.00
47726;BME280;33483;48.294;16.388;2023-11-21T02:16:36;99060.28;;;6.65;100.00
47726;BME280;33483;48.294;16.388;2023-11-21T02:19:03;99061.75;;;6.66;100.00
47726;BME280;33483;48.294;16.388;2023-11-21T02:21:36;99055.28;;;6.63;100.00
47726;BME280;33483;48.294;16.388;2023-11-21T02:24:10;99064.06;;;6.62;100.00
47726;BME280;33483;48.294;16.388;2023-11-21T02:26:37;99070.31;;;6.62;100.00
47726;BME280;33483;48.294;16.388;2023-11-21T02:29:07;99060.31;;;6.59;100.00
47726;BME280;33483;48.294;16.388;2023-11-21T02:31:37;99055.56;;;6.60;100.00
47726;BME280;33483;48.294;16.388;2023-11-21T02:34:15;99050.06;;;6.60;100.00
47726;BME280;33483;48.294;16.388;2023-11-21T02:36:46;99056.13;;;6.53;100.00
47726;BME280;33483;48.294;16.388;2023-11-21T02:39:16;99050.56;;;6.58;100.00
47726;BME280;33483;48.294;16.388;2023-11-21T02:41:44;99053.13;;;6.51;100.00
47726;BME280;33483;48.294;16.388;2023-11-21T02:44:11;99051.16;;;6.46;100.00
47726;BME280;33483;48.294;16.388;2023-11-21T02:46:40;99051.00;;;6.33;100.00
47726;BME280;33483;48.294;16.388;2023-11-21T02:49:10;99053.03;;;6.27;100.00
47726;BME280;33483;48.294;16.388;2023-11-21T02:51:40;99051.31;;;6.24;100.00
47726;BME280;33483;48.294;16.388;2023-11-21T02:54:07;99063.13;;;6.13;100.00
47726;BME280;33483;48.294;16.388;2023-11-21T02:56:35;99068.41;;;6.06;100.00
47726;BME280;33483;48.294;16.388;2023-11-21T02:59:02;99060.72;;;5.93;100.00
47726;BME280;33483;48.294;16.388;2023-11-21T03:01:30;99060.75;;;5.88;100.00
47726;BME280;33483;48.294;16.388;2023-11-21T03:03:57;99060.75;;;5.82;100.00
47726;BME280;33483;48.294;16.388;2023-11-21T03:06:24;99053.53;;;5.73;100.00
47726;BME280;33483;48.294;16.388;2023-11-21T03:08:51;99056.78;;;5.72;100.00
47726;BME280;33483;48.294;16.388;2023-11-21T03:11:19;99052.31;;;5.63;100.00
47726;BME280;33483;48.294;16.388;2023-11-21T03:13:46;99054.34;;;5.63;100.00
47726;BME280;33483;48.294;16.388;2023-11-21T03:16:14;99043.28;;;5.74;100.00
47726;BME280;33483;48.294;16.388;2023-11-21T03:18:41;99042.75;;;5.75;100.00
47726;BME280;33483;48.294;16.388;2023-11-21T03:21:08;99039.00;;;5.84;100.00
47726;BME280;33483;48.294;16.388;2023-11-21T03:23:35;99041.72;;;5.95;100.00
47726;BME280;33483;48.294;16.388;2023-11-21T03:26:03;99046.19;;;5.98;100.00
47726;BME280;33483;48.294;16.388;2023-11-21T03:28:30;99046.44;;;6.00;100.00
47726;BME280;33483;48.294;16.388;2023-11-21T03:30:58;99046.16;;;6.04;100.00
47726;BME280;33483;48.294;16.388;2023-11-21T03:33:25;99051.88;;;6.11;100.00
47726;BME280;33483;48.294;16.388;2023-11-21T03:35:52;99047.84;;;6.12;100.00
47726;BME280;33483;48.294;16.388;2023-11-21T03:38:19;99042.53;;;6.25;100.00
47726;BME280;33483;48.294;16.388;2023-11-21T03:40:48;99052.00;;;6.30;100.00
47726;BME280;33483;48.294;16.388;2023-11-21T03:43:16;99044.50;;;6.30;100.00
47726;BME280;33483;48.294;16.388;2023-11-21T03:45:45;99045.53;;;6.27;100.00
47726;BME280;33483;48.294;16.388;2023-11-21T03:48:12;99042.00;;;6.32;100.00
47726;BME280;33483;48.294;16.388;2023-11-21T03:50:42;99039.66;;;6.42;100.00
47726;BME280;33483;48.294;16.388;2023-11-21T03:53:09;99044.16;;;6.45;100.00
47726;BME280;33483;48.294;16.388;2023-11-21T03:55:37;99042.63;;;6.49;100.00
47726;BME280;33483;48.294;16.388;2023-11-21T03:58:04;99039.88;;;6.49;100.00
47726;BME280;33483;48.294;16.388;2023-11-21T04:00:33;99049.56;;;6.56;100.00
47726;BME280;33483;48.294;16.388;2023-11-21T04:03:00;99044.84;;;6.51;100.00
47726;BME280;33483;48.294;16.388;2023-11-21T04:05:28;99050.56;;;6.58;100.00
47726;BME280;33483;48.294;16.388;2023-11-21T04:07:55;99045.53;;;6.62;100.00
47726;BME280;33483;48.294;16.388;2023-11-21T04:10:22;99059.00;;;6.66;100.00
47726;BME280;33483;48.294;16.388;2023-11-21T04:12:49;99059.53;;;6.64;100.00
47726;BME280;33483;48.294;16.388;2023-11-21T04:15:16;99061.47;;;6.69;100.00
47726;BME280;33483;48.294;16.388;2023-11-21T04:17:44;99062.75;;;6.68;100.00
47726;BME280;33483;48.294;16.388;2023-11-21T04:20:15;99058.72;;;6.69;100.00
47726;BME280;33483;48.294;16.388;2023-11-21T04:22:42;99053.00;;;6.67;100.00
47726;BME280;33483;48.294;16.388;2023-11-21T04:25:14;99053.31;;;6.58;100.00
47726;BME280;33483;48.294;16.388;2023-11-21T04:27:42;99051.38;;;6.53;100.00
47726;BME280;33483;48.294;16.388;2023-11-21T04:30:12;99050.91;;;6.44;100.00
47726;BME280;33483;48.294;16.388;2023-11-21T04:32:39;99050.50;;;6.34;100.00
47726;BME280;33483;48.294;16.388;2023-11-21T04:35:07;99044.03;;;6.26;100.00
47726;BME280;33483;48.294;16.388;2023-11-21T04:37:38;99042.28;;;6.29;100.00
47726;BME280;33483;48.294;16.388;2023-11-21T04:40:05;99040.31;;;6.24;100.00
47726;BME280;33483;48.294;16.388;2023-11-21T04:42:34;99045.09;;;6.18;100.00
47726;BME280;33483;48.294;16.388;2023-11-21T04:45:04;99034.03;;;6.23;100.00
47726;BME280;33483;48.294;16.388;2023-11-21T04:47:35;99032.75;;;6.30;100.00
47726;BME280;33483;48.294;16.388;2023-11-21T04:50:03;99034.81;;;6.24;100.00
47726;BME280;33483;48.294;16.388;2023-11-21T04:52:30;99029.28;;;6.24;100.00
47726;BME280;33483;48.294;16.388;2023-11-21T04:54:58;99035.81;;;6.21;100.00
47726;BME280;33483;48.294;16.388;2023-11-21T04:57:25;99037.09;;;6.14;100.00
47726;BME280;33483;48.294;16.388;2023-11-21T04:59:55;99036.16;;;6.06;100.00
47726;BME280;33483;48.294;16.388;2023-11-21T05:02:22;99041.16;;;6.02;100.00
47726;BME280;33483;48.294;16.388;2023-11-21T05:05:01;99039.19;;;6.03;100.00
47726;BME280;33483;48.294;16.388;2023-11-21T05:07:33;99037.38;;;6.11;100.00
47726;BME280;33483;48.294;16.388;2023-11-21T05:10:05;99039.06;;;6.19;100.00
47726;BME280;33483;48.294;16.388;2023-11-21T05:12:38;99045.56;;;6.22;100.00
47726;BME280;33483;48.294;16.388;2023-11-21T05:15:05;99052.81;;;6.19;100.00
47726;BME280;33483;48.294;16.388;2023-11-21T05:17:39;99046.78;;;6.26;100.00
47726;BME280;33483;48.294;16.388;2023-11-21T05:20:11;99046.78;;;6.26;100.00
47726;BME280;33483;48.294;16.388;2023-11-21T05:22:40;99041.03;;;6.24;100.00
47726;BME280;33483;48.294;16.388;2023-11-21T05:25:09;99055.78;;;6.27;100.00
47726;BME280;33483;48.294;16.388;2023-11-21T05:27:36;99058.28;;;6.25;100.00
47726;BME280;33483;48.294;16.388;2023-11-21T05:30:04;99058.75;;;6.34;100.00
47726;BME280;33483;48.294;16.388;2023-11-21T05:32:40;99062.50;;;6.31;100.00
47726;BME280;33483;48.294;16.388;2023-11-21T05:35:14;99064.78;;;6.33;100.00
47726;BME280;33483;48.294;16.388;2023-11-21T05:37:44;99073.06;;;6.27;100.00
47726;BME280;33483;48.294;16.388;2023-11-21T05:40:15;99080.78;;;6.29;100.00
47726;BME280;33483;48.294;16.388;2023-11-21T05:42:42;99079.28;;;6.28;100.00
47726;BME280;33483;48.294;16.388;2023-11-21T05:45:10;99081.56;;;6.29;100.00
47726;BME280;33483;48.294;16.388;2023-11-21T05:47:40;99076.09;;;6.18;100.00
47726;BME280;33483;48.294;16.388;2023-11-21T05:50:11;99068.59;;;6.19;100.00
47726;BME280;33483;48.294;16.388;2023-11-21T05:52:42;99079.09;;;6.20;100.00
47726;BME280;33483;48.294;16.388;2023-11-21T05:55:10;99085.31;;;6.26;100.00
47726;BME280;33483;48.294;16.388;2023-11-21T05:57:37;99081.03;;;6.31;100.00
47726;BME280;33483;48.294;16.388;2023-11-21T06:00:08;99090.22;;;6.39;100.00
47726;BME280;33483;48.294;16.388;2023-11-21T06:02:42;99100.03;;;6.34;100.00
47726;BME280;33483;48.294;16.388;2023-11-21T06:05:10;99099.53;;;6.30;100.00
47726;BME280;33483;48.294;16.388;2023-11-21T06:07:37;99102.56;;;6.27;100.00
47726;BME280;33483;48.294;16.388;2023-11-21T06:10:06;99107.06;;;6.24;100.00
47726;BME280;33483;48.294;16.388;2023-11-21T06:12:36;99105.56;;;6.29;100.00
47726;BME280;33483;48.294;16.388;2023-11-21T06:15:03;99107.81;;;6.30;100.00
47726;BME280;33483;48.294;16.388;2023-11-21T06:17:34;99112.53;;;6.35;100.00
47726;BME280;33483;48.294;16.388;2023-11-21T06:20:09;99117.50;;;6.42;100.00
47726;BME280;33483;48.294;16.388;2023-11-21T06:22:40;99111.94;;;6.53;100.00
47726;BME280;33483;48.294;16.388;2023-11-21T06:25:08;99115.66;;;6.56;100.00
47726;BME280;33483;48.294;16.388;2023-11-21T06:27:38;99119.13;;;6.62;100.00
47726;BME280;33483;48.294;16.388;2023-11-21T06:30:06;99120.06;;;6.70;100.00
47726;BME280;33483;48.294;16.388;2023-11-21T06:32:35;99123.28;;;6.74;100.00
47726;BME280;33483;48.294;16.388;2023-11-21T06:35:03;99132.78;;;6.78;100.00
47726;BME280;33483;48.294;16.388;2023-11-21T06:37:31;99133.25;;;6.82;100.00
47726;BME280;33483;48.294;16.388;2023-11-21T06:39:59;99134.69;;;6.89;100.00
47726;BME280;33483;48.294;16.388;2023-11-21T06:42:26;99149.94;;;6.96;100.00
47726;BME280;33483;48.294;16.388;2023-11-21T06:44:54;99145.88;;;7.02;100.00
47726;BME280;33483;48.294;16.388;2023-11-21T06:47:24;99155.34;;;7.07;100.00
47726;BME280;33483;48.294;16.388;2023-11-21T06:49:57;99157.56;;;7.14;100.00
47726;BME280;33483;48.294;16.388;2023-11-21T06:52:27;99154.75;;;7.19;100.00
47726;BME280;33483;48.294;16.388;2023-11-21T06:54:54;99160.22;;;7.25;100.00
47726;BME280;33483;48.294;16.388;2023-11-21T06:57:25;99152.41;;;7.29;100.00
47726;BME280;33483;48.294;16.388;2023-11-21T06:59:52;99149.31;;;7.38;100.00
47726;BME280;33483;48.294;16.388;2023-11-21T07:02:19;99161.06;;;7.44;100.00
47726;BME280;33483;48.294;16.388;2023-11-21T07:04:47;99156.97;;;7.50;100.00
47726;BME280;33483;48.294;16.388;2023-11-21T07:07:17;99162.69;;;7.58;100.00
47726;BME280;33483;48.294;16.388;2023-11-21T07:09:48;99163.88;;;7.62;100.00
47726;BME280;33483;48.294;16.388;2023-11-21T07:12:18;99163.84;;;7.68;100.00
47726;BME280;33483;48.294;16.388;2023-11-21T07:14:50;99168.78;;;7.75;100.00
47726;BME280;33483;48.294;16.388;2023-11-21T07:17:18;99167.72;;;7.78;100.00
47726;BME280;33483;48.294;16.388;2023-11-21T07:19:46;99170.22;;;7.81;100.00
47726;BME280;33483;48.294;16.388;2023-11-21T07:22:13;99167.16;;;7.85;100.00
47726;BME280;33483;48.294;16.388;2023-11-21T07:24:43;99172.91;;;7.87;100.00
47726;BME280;33483;48.294;16.388;2023-11-21T07:27:10;99179.56;;;7.97;100.00
47726;BME280;33483;48.294;16.388;2023-11-21T07:29:37;99178.03;;;8.02;100.00
47726;BME280;33483;48.294;16.388;2023-11-21T07:32:06;99186.44;;;8.09;100.00
47726;BME280;33483;48.294;16.388;2023-11-21T07:34:36;99186.41;;;8.15;100.00
47726;BME280;33483;48.294;16.388;2023-11-21T07:37:03;99179.78;;;8.23;100.00
47726;BME280;33483;48.294;16.388;2023-11-21T07:39:31;99178.78;;;8.26;100.00
47726;BME280;33483;48.294;16.388;2023-11-21T07:41:58;99181.69;;;8.34;100.00
47726;BME280;33483;48.294;16.388;2023-11-21T07:44:28;99196.63;;;8.44;100.00
47726;BME280;33483;48.294;16.388;2023-11-21T07:46:55;99197.22;;;8.55;100.00
47726;BME280;33483;48.294;16.388;2023-11-21T07:49:25;99188.06;;;8.66;100.00
47726;BME280;33483;48.294;16.388;2023-11-21T07:51:53;99189.09;;;8.81;100.00
47726;BME280;33483;48.294;16.388;2023-11-21T07:54:21;99185.50;;;8.86;100.00
47726;BME280;33483;48.294;16.388;2023-11-21T07:56:48;99183.78;;;8.83;100.00
47726;BME280;33483;48.294;16.388;2023-11-21T07:59:15;99194.16;;;8.77;100.00
47726;BME280;33483;48.294;16.388;2023-11-21T08:01:43;99190.44;;;8.75;100.00
47726;BME280;33483;48.294;16.388;2023-11-21T08:04:12;99195.88;;;8.80;100.00
47726;BME280;33483;48.294;16.388;2023-11-21T08:06:39;99190.56;;;8.82;100.00
47726;BME280;33483;48.294;16.388;2023-11-21T08:09:09;99198.13;;;8.82;100.00
47726;BME280;33483;48.294;16.388;2023-11-21T08:11:36;99187.69;;;8.75;100.00
47726;BME280;33483;48.294;16.388;2023-11-21T08:14:05;99194.09;;;8.64;100.00
47726;BME280;33483;48.294;16.388;2023-11-21T08:16:33;99197.97;;;8.56;100.00
47726;BME280;33483;48.294;16.388;2023-11-21T08:19:00;99197.53;;;8.52;100.00
47726;BME280;33483;48.294;16.388;2023-11-21T08:21:27;99203.94;;;8.60;100.00
47726;BME280;33483;48.294;16.388;2023-11-21T08:23:56;99196.03;;;8.69;100.00
47726;BME280;33483;48.294;16.388;2023-11-21T08:26:23;99202.00;;;8.92;100.00
47726;BME280;33483;48.294;16.388;2023-11-21T08:28:50;99206.28;;;9.25;100.00
47726;BME280;33483;48.294;16.388;2023-11-21T08:31:25;99206.72;;;9.29;100.00
47726;BME280;33483;48.294;16.388;2023-11-21T08:33:53;99211.13;;;9.37;100.00
47726;BME280;33483;48.294;16.388;2023-11-21T08:36:25;99214.88;;;9.53;100.00
47726;BME280;33483;48.294;16.388;2023-11-21T08:38:55;99213.09;;;9.55;100.00
47726;BME280;33483;48.294;16.388;2023-11-21T08:41:22;99212.88;;;9.66;100.00
47726;BME280;33483;48.294;16.388;2023-11-21T08:43:49;99216.50;;;9.61;100.00
47726;BME280;33483;48.294;16.388;2023-11-21T08:46:18;99213.41;;;9.65;100.00
47726;BME280;33483;48.294;16.388;2023-11-21T08:48:45;99216.00;;;9.76;100.00
47726;BME280;33483;48.294;16.388;2023-11-21T08:51:13;99209.13;;;9.95;100.00
47726;BME280;33483;48.294;16.388;2023-11-21T08:53:41;99217.25;;;10.19;100.00
47726;BME280;33483;48.294;16.388;2023-11-21T08:56:12;99218.59;;;10.39;100.00
47726;BME280;33483;48.294;16.388;2023-11-21T08:58:39;99220.28;;;10.68;100.00
47726;BME280;33483;48.294;16.388;2023-11-21T09:01:06;99221.09;;;10.89;100.00
47726;BME280;33483;48.294;16.388;2023-11-21T09:03:34;99219.63;;;11.09;100.00
47726;BME280;33483;48.294;16.388;2023-11-21T09:06:02;99222.84;;;11.33;100.00
47726;BME280;33483;48.294;16.388;2023-11-21T09:08:30;99211.44;;;11.78;100.00
47726;BME280;33483;48.294;16.388;2023-11-21T09:10:57;99221.63;;;11.83;100.00
47726;BME280;33483;48.294;16.388;2023-11-21T09:13:24;99213.56;;;11.93;100.00
47726;BME280;33483;48.294;16.388;2023-11-21T09:15:52;99211.53;;;11.93;100.00
47726;BME280;33483;48.294;16.388;2023-11-21T09:18:19;99206.19;;;11.95;100.00
47726;BME280;33483;48.294;16.388;2023-11-21T09:20:46;99207.78;;;11.91;100.00
47726;BME280;33483;48.294;16.388;2023-11-21T09:23:13;99201.25;;;11.60;100.00
47726;BME280;33483;48.294;16.388;2023-11-21T09:25:41;99196.97;;;11.38;100.00
47726;BME280;33483;48.294;16.388;2023-11-21T09:28:08;99193.94;;;11.29;100.00
47726;BME280;33483;48.294;16.388;2023-11-21T09:30:35;99195.75;;;11.26;100.00
47726;BME280;33483;48.294;16.388;2023-11-21T09:33:03;99198.94;;;11.30;100.00
47726;BME280;33483;48.294;16.388;2023-11-21T09:35:32;99188.31;;;11.21;100.00
47726;BME280;33483;48.294;16.388;2023-11-21T09:37:59;99189.41;;;11.39;100.00
47726;BME280;33483;48.294;16.388;2023-11-21T09:40:28;99195.91;;;11.42;100.00
47726;BME280;33483;48.294;16.388;2023-11-21T09:42:58;99193.28;;;11.36;100.00
47726;BME280;33483;48.294;16.388;2023-11-21T09:45:27;99191.19;;;11.29;100.00
47726;BME280;33483;48.294;16.388;2023-11-21T09:47:55;99195.56;;;11.24;100.00
47726;BME280;33483;48.294;16.388;2023-11-21T09:50:24;99192.78;;;11.24;100.00
47726;BME280;33483;48.294;16.388;2023-11-21T09:52:57;99202.34;;;11.37;100.00
47726;BME280;33483;48.294;16.388;2023-11-21T09:55:26;99194.88;;;11.31;100.00
47726;BME280;33483;48.294;16.388;2023-11-21T09:57:56;99192.47;;;11.49;100.00
47726;BME280;33483;48.294;16.388;2023-11-21T10:00:27;99189.94;;;11.38;100.00
47726;BME280;33483;48.294;16.388;2023-11-21T10:02:58;99197.41;;;11.43;99.03
47726;BME280;33483;48.294;16.388;2023-11-21T10:05:29;99193.34;;;11.44;97.94
47726;BME280;33483;48.294;16.388;2023-11-21T10:07:56;99186.72;;;11.47;98.32
47726;BME280;33483;48.294;16.388;2023-11-21T10:10:28;99180.69;;;11.56;99.74
47726;BME280;33483;48.294;16.388;2023-11-21T10:13:01;99183.25;;;11.54;95.00
47726;BME280;33483;48.294;16.388;2023-11-21T10:15:30;99181.19;;;11.54;98.44
47726;BME280;33483;48.294;16.388;2023-11-21T10:17:58;99182.47;;;11.66;96.43
47726;BME280;33483;48.294;16.388;2023-11-21T10:20:25;99174.66;;;11.65;93.82
47726;BME280;33483;48.294;16.388;2023-11-21T10:22:52;99177.50;;;11.72;91.98
47726;BME280;33483;48.294;16.388;2023-11-21T10:25:19;99175.16;;;11.84;88.77
47726;BME280;33483;48.294;16.388;2023-11-21T10:27:47;99173.47;;;12.09;90.06
47726;BME280;33483;48.294;16.388;2023-11-21T10:30:17;99176.16;;;12.22;92.58
47726;BME280;33483;48.294;16.388;2023-11-21T10:32:44;99175.69;;;12.03;86.93
47726;BME280;33483;48.294;16.388;2023-11-21T10:35:17;99182.81;;;11.91;88.87
47726;BME280;33483;48.294;16.388;2023-11-21T10:37:44;99186.72;;;11.95;87.34
47726;BME280;33483;48.294;16.388;2023-11-21T10:40:27;99178.69;;;12.12;86.45
47726;BME280;33483;48.294;16.388;2023-11-21T10:42:59;99187.88;;;12.00;86.72
47726;BME280;33483;48.294;16.388;2023-11-21T10:45:33;99189.09;;;11.91;86.35
47726;BME280;33483;48.294;16.388;2023-11-21T10:48:00;99201.88;;;11.87;85.56
47726;BME280;33483;48.294;16.388;2023-11-21T10:50:28;99193.88;;;11.83;88.67
47726;BME280;33483;48.294;16.388;2023-11-21T10:52:57;99199.97;;;11.82;89.18
47726;BME280;33483;48.294;16.388;2023-11-21T10:55:25;99194.56;;;11.76;89.76
47726;BME280;33483;48.294;16.388;2023-11-21T10:57:54;99194.22;;;11.59;92.81
47726;BME280;33483;48.294;16.388;2023-11-21T11:00:22;99184.03;;;11.62;95.20
47726;BME280;33483;48.294;16.388;2023-11-21T11:02:54;99187.50;;;11.55;95.71
47726;BME280;33483;48.294;16.388;2023-11-21T11:05:23;99181.84;;;11.40;94.52
47726;BME280;33483;48.294;16.388;2023-11-21T11:07:51;99179.19;;;11.55;93.51
47726;BME280;33483;48.294;16.388;2023-11-21T11:10:21;99182.94;;;11.37;98.41
47726;BME280;33483;48.294;16.388;2023-11-21T11:12:53;99175.41;;;11.24;100.00
47726;BME280;33483;48.294;16.388;2023-11-21T11:15:23;99176.09;;;11.38;100.00
47726;BME280;33483;48.294;16.388;2023-11-21T11:17:50;99182.19;;;11.36;100.00
47726;BME280;33483;48.294;16.388;2023-11-21T11:20:17;99185.16;;;11.38;100.00
47726;BME280;33483;48.294;16.388;2023-11-21T11:28:08;99171.81;;;11.57;97.40
47726;BME280;33483;48.294;16.388;2023-11-21T11:30:50;99171.59;;;11.55;98.36
47726;BME280;33483;48.294;16.388;2023-11-21T11:33:28;99160.84;;;11.52;99.72
47726;BME280;33483;48.294;16.388;2023-11-21T11:38:38;99152.66;;;11.46;100.00
47726;BME280;33483;48.294;16.388;2023-11-21T11:41:08;99164.50;;;11.47;100.00
47726;BME280;33483;48.294;16.388;2023-11-21T11:43:36;99152.06;;;11.40;100.00
47726;BME280;33483;48.294;16.388;2023-11-21T11:46:12;99168.63;;;11.32;100.00
47726;BME280;33483;48.294;16.388;2023-11-21T11:48:40;99163.09;;;11.32;100.00
47726;BME280;33483;48.294;16.388;2023-11-21T11:51:11;99164.31;;;11.45;100.00
47726;BME280;33483;48.294;16.388;2023-11-21T11:53:41;99162.97;;;11.38;100.00
47726;BME280;33483;48.294;16.388;2023-11-21T11:56:22;99158.97;;;11.47;100.00
47726;BME280;33483;48.294;16.388;2023-11-21T11:58:50;99166.88;;;11.43;100.00
47726;BME280;33483;48.294;16.388;2023-11-21T12:01:20;99155.19;;;11.37;100.00
47726;BME280;33483;48.294;16.388;2023-11-21T12:04:33;99162.09;;;11.22;100.00
47726;BME280;33483;48.294;16.388;2023-11-21T12:06:37;99167.00;;;11.16;100.00
47726;BME280;33483;48.294;16.388;2023-11-21T12:09:06;99164.56;;;11.13;100.00
47726;BME280;33483;48.294;16.388;2023-11-21T12:11:34;99171.47;;;11.19;100.00
47726;BME280;33483;48.294;16.388;2023-11-21T12:14:03;99174.13;;;11.25;100.00
47726;BME280;33483;48.294;16.388;2023-11-21T12:16:32;99169.06;;;11.37;100.00
47726;BME280;33483;48.294;16.388;2023-11-21T12:19:02;99176.22;;;11.32;100.00
47726;BME280;33483;48.294;16.388;2023-11-21T12:21:29;99174.84;;;11.46;100.00
47726;BME280;33483;48.294;16.388;2023-11-21T12:23:59;99170.31;;;11.56;100.00
47726;BME280;33483;48.294;16.388;2023-11-21T12:26:27;99167.88;;;11.53;100.00
47726;BME280;33483;48.294;16.388;2023-11-21T12:28:56;99170.59;;;11.45;100.00
47726;BME280;33483;48.294;16.388;2023-11-21T12:31:24;99160.41;;;11.40;100.00
47726;BME280;33483;48.294;16.388;2023-11-21T12:33:55;99160.78;;;11.44;100.00
47726;BME280;33483;48.294;16.388;2023-11-21T12:36:23;99168.31;;;11.36;100.00
47726;BME280;33483;48.294;16.388;2023-11-21T12:38:52;99158.75;;;11.45;100.00
47726;BME280;33483;48.294;16.388;2023-11-21T12:41:19;99159.84;;;11.42;100.00
47726;BME280;33483;48.294;16.388;2023-11-21T12:43:48;99157.53;;;11.53;100.00
47726;BME280;33483;48.294;16.388;2023-11-21T12:46:15;99163.56;;;11.44;100.00
47726;BME280;33483;48.294;16.388;2023-11-21T12:48:44;99155.22;;;11.44;100.00
47726;BME280;33483;48.294;16.388;2023-11-21T12:51:12;99158.13;;;11.38;100.00
47726;BME280;33483;48.294;16.388;2023-11-21T12:53:42;99160.56;;;11.42;100.00
47726;BME280;33483;48.294;16.388;2023-11-21T12:56:12;99162.88;;;11.30;100.00
47726;BME280;33483;48.294;16.388;2023-11-21T12:58:40;99162.59;;;11.21;100.00
47726;BME280;33483;48.294;16.388;2023-11-21T13:01:12;99165.75;;;11.17;100.00
47726;BME280;33483;48.294;16.388;2023-11-21T13:03:48;99166.06;;;11.14;100.00